createdAt,value
2023-02-15T00:00:36.183Z,0.00
2023-02-15T00:01:36.163Z,0.00
2023-02-15T00:02:36.154Z,0.00
2023-02-15T00:03:36.138Z,0.00
2023-02-15T00:04:36.108Z,0.00
2023-02-15T00:05:36.089Z,0.00
2023-02-15T00:06:36.103Z,0.00
2023-02-15T00:07:36.070Z,0.00
2023-02-15T00:08:36.054Z,0.00
2023-02-15T00:09:36.051Z,0.00
2023-02-15T00:10:36.035Z,0.00
2023-02-15T00:11:36.051Z,0.00
2023-02-15T00:12:36.042Z,0.00
2023-02-15T00:13:36.006Z,0.00
2023-02-15T00:14:35.991Z,0.00
2023-02-15T00:15:35.978Z,0.00
2023-02-15T00:16:36.014Z,0.00
2023-02-15T00:17:35.981Z,0.00
2023-02-15T00:18:35.948Z,0.00
2023-02-15T00:19:35.967Z,0.00
2023-02-15T00:20:35.923Z,0.00
2023-02-15T00:21:35.910Z,0.00
2023-02-15T00:22:35.924Z,0.00
2023-02-15T00:23:35.889Z,0.00
2023-02-15T00:24:35.877Z,0.00
2023-02-15T00:25:35.861Z,0.00
2023-02-15T00:26:35.854Z,0.00
2023-02-15T00:27:35.866Z,0.00
2023-02-15T00:28:35.832Z,0.00
2023-02-15T00:29:35.835Z,0.00
2023-02-15T00:30:35.834Z,0.00
2023-02-15T00:31:35.842Z,0.00
2023-02-15T00:32:35.825Z,0.00
2023-02-15T00:33:35.778Z,0.00
2023-02-15T00:34:35.780Z,0.00
2023-02-15T00:35:35.779Z,0.00
2023-02-15T00:36:35.763Z,0.00
2023-02-15T00:37:35.756Z,0.00
2023-02-15T00:38:35.728Z,0.00
2023-02-15T00:39:35.713Z,0.00
2023-02-15T00:40:35.708Z,0.00
2023-02-15T00:41:35.703Z,0.00
2023-02-15T00:42:35.707Z,0.00
2023-02-15T00:43:35.663Z,0.00
2023-02-15T00:44:35.667Z,0.00
2023-02-15T00:45:35.649Z,0.00
2023-02-15T00:46:35.636Z,0.00
2023-02-15T00:47:35.638Z,0.00
2023-02-15T00:48:35.613Z,0.00
2023-02-15T00:49:35.627Z,0.00
2023-02-15T00:50:35.592Z,0.00
2023-02-15T00:51:35.626Z,0.00
2023-02-15T00:52:35.573Z,0.00
2023-02-15T00:53:35.558Z,0.00
2023-02-15T00:54:35.552Z,0.00
2023-02-15T00:55:35.533Z,0.00
2023-02-15T00:56:35.550Z,0.00
2023-02-15T00:57:35.513Z,0.00
2023-02-15T00:58:35.518Z,0.00
2023-02-15T00:59:35.499Z,0.00
2023-02-15T01:00:35.505Z,0.00
2023-02-15T01:01:35.561Z,0.00
2023-02-15T01:02:35.498Z,0.00
2023-02-15T01:03:35.456Z,0.00
2023-02-15T01:04:35.508Z,0.00
2023-02-15T01:05:35.424Z,0.00
2023-02-15T01:06:35.437Z,0.00
2023-02-15T01:07:35.425Z,0.00
2023-02-15T01:08:35.425Z,0.00
2023-02-15T01:09:35.383Z,0.00
2023-02-15T01:10:35.372Z,0.00
2023-02-15T01:11:35.358Z,0.00
2023-02-15T01:12:35.393Z,0.00
2023-02-15T01:13:35.370Z,0.00
2023-02-15T01:14:35.334Z,0.00
2023-02-15T01:15:35.335Z,0.00
2023-02-15T01:16:35.312Z,0.00
2023-02-15T01:17:35.288Z,0.00
2023-02-15T01:18:35.336Z,0.00
2023-02-15T01:19:35.277Z,0.00
2023-02-15T01:20:35.270Z,0.00
2023-02-15T01:21:35.390Z,0.00
2023-02-15T01:22:35.244Z,0.00
2023-02-15T01:23:35.286Z,0.00
2023-02-15T01:24:35.224Z,0.00
2023-02-15T01:25:35.215Z,0.00
2023-02-15T01:26:35.239Z,0.00
2023-02-15T01:27:35.184Z,0.00
2023-02-15T01:28:35.173Z,0.00
2023-02-15T01:29:35.160Z,0.00
2023-02-15T01:30:35.151Z,0.00
2023-02-15T01:31:35.250Z,0.00
2023-02-15T01:32:35.133Z,0.00
2023-02-15T01:33:35.116Z,0.00
2023-02-15T01:34:35.133Z,0.00
2023-02-15T01:35:35.096Z,0.00
2023-02-15T01:36:35.083Z,0.00
2023-02-15T01:37:35.102Z,0.00
2023-02-15T01:38:35.065Z,0.00
2023-02-15T01:39:35.070Z,0.00
2023-02-15T01:40:35.042Z,0.00
2023-02-15T01:41:35.032Z,0.00
2023-02-15T01:42:35.042Z,0.00
2023-02-15T01:43:35.010Z,0.00
2023-02-15T01:44:35.005Z,0.00
2023-02-15T01:45:34.993Z,0.00
2023-02-15T01:46:35.153Z,0.00
2023-02-15T01:47:34.997Z,0.00
2023-02-15T01:48:34.967Z,0.00
2023-02-15T01:49:34.943Z,0.00
2023-02-15T01:50:34.932Z,0.00
2023-02-15T01:51:34.935Z,0.00
2023-02-15T01:52:34.940Z,0.00
2023-02-15T01:53:34.898Z,0.00
2023-02-15T01:54:34.934Z,0.00
2023-02-15T01:55:34.896Z,0.00
2023-02-15T01:56:34.870Z,0.00
2023-02-15T01:57:34.883Z,0.00
2023-02-15T01:58:34.848Z,0.00
2023-02-15T01:59:34.870Z,0.00
2023-02-15T02:00:34.847Z,0.00
2023-02-15T02:01:34.912Z,0.00
2023-02-15T02:02:34.868Z,0.00
2023-02-15T02:03:34.819Z,0.00
2023-02-15T02:04:34.785Z,0.00
2023-02-15T02:05:34.770Z,0.00
2023-02-15T02:06:34.771Z,0.00
2023-02-15T02:07:34.746Z,0.00
2023-02-15T02:08:34.760Z,0.00
2023-02-15T02:09:34.752Z,0.00
2023-02-15T02:10:34.715Z,0.00
2023-02-15T02:11:34.723Z,0.00
2023-02-15T02:12:34.694Z,0.00
2023-02-15T02:13:34.689Z,0.00
2023-02-15T02:14:34.715Z,0.00
2023-02-15T02:15:34.705Z,0.00
2023-02-15T02:16:34.656Z,0.00
2023-02-15T02:17:34.640Z,0.00
2023-02-15T02:18:34.658Z,0.00
2023-02-15T02:19:34.644Z,0.00
2023-02-15T02:20:34.615Z,0.00
2023-02-15T02:21:34.597Z,0.00
2023-02-15T02:22:34.601Z,0.00
2023-02-15T02:23:34.581Z,0.00
2023-02-15T02:24:34.600Z,0.00
2023-02-15T02:25:34.553Z,0.00
2023-02-15T02:26:34.543Z,0.00
2023-02-15T02:27:34.557Z,0.00
2023-02-15T02:28:34.523Z,0.00
2023-02-15T02:29:34.538Z,0.00
2023-02-15T02:30:34.733Z,0.00
2023-02-15T02:31:34.622Z,0.00
2023-02-15T02:32:34.486Z,0.00
2023-02-15T02:33:34.470Z,0.00
2023-02-15T02:34:34.479Z,0.00
2023-02-15T02:35:34.469Z,0.00
2023-02-15T02:36:34.443Z,0.00
2023-02-15T02:37:34.455Z,0.00
2023-02-15T02:38:34.420Z,0.00
2023-02-15T02:39:34.404Z,0.00
2023-02-15T02:40:34.399Z,0.00
2023-02-15T02:41:34.384Z,0.00
2023-02-15T02:42:34.405Z,0.00
2023-02-15T02:43:34.388Z,0.00
2023-02-15T02:44:34.363Z,0.00
2023-02-15T02:45:34.342Z,0.00
2023-02-15T02:46:34.380Z,0.00
2023-02-15T02:47:34.341Z,0.00
2023-02-15T02:48:34.318Z,0.00
2023-02-15T02:49:34.295Z,0.00
2023-02-15T02:50:34.293Z,0.00
2023-02-15T02:51:34.281Z,0.00
2023-02-15T02:52:34.294Z,0.00
2023-02-15T02:53:34.256Z,0.00
2023-02-15T02:54:34.247Z,0.00
2023-02-15T02:55:34.233Z,0.00
2023-02-15T02:56:34.225Z,0.00
2023-02-15T02:57:34.236Z,0.00
2023-02-15T02:58:34.210Z,0.00
2023-02-15T02:59:34.216Z,0.00
2023-02-15T03:00:34.181Z,0.00
2023-02-15T03:01:34.249Z,0.00
2023-02-15T03:02:34.236Z,0.00
2023-02-15T03:03:34.145Z,0.00
2023-02-15T03:04:34.163Z,0.00
2023-02-15T03:05:34.127Z,0.00
2023-02-15T03:06:34.115Z,0.00
2023-02-15T03:07:34.125Z,0.00
2023-02-15T03:08:34.095Z,0.00
2023-02-15T03:09:34.106Z,0.00
2023-02-15T03:10:34.072Z,0.00
2023-02-15T03:11:34.060Z,0.00
2023-02-15T03:12:34.060Z,0.00
2023-02-15T03:13:34.043Z,0.00
2023-02-15T03:14:34.062Z,0.00
2023-02-15T03:15:34.049Z,0.00
2023-02-15T03:16:34.074Z,0.00
2023-02-15T03:17:33.998Z,0.00
2023-02-15T03:18:33.988Z,0.00
2023-02-15T03:19:34.004Z,0.00
2023-02-15T03:20:33.968Z,0.00
2023-02-15T03:21:33.953Z,0.00
2023-02-15T03:22:33.948Z,0.00
2023-02-15T03:23:33.955Z,0.00
2023-02-15T03:24:33.927Z,0.00
2023-02-15T03:25:33.912Z,0.00
2023-02-15T03:26:33.902Z,0.00
2023-02-15T03:27:33.887Z,0.00
2023-02-15T03:28:33.897Z,0.00
2023-02-15T03:29:33.890Z,0.00
2023-02-15T03:30:33.858Z,0.00
2023-02-15T03:31:34.001Z,0.00
2023-02-15T03:32:33.844Z,0.00
2023-02-15T03:33:33.823Z,0.00
2023-02-15T03:34:33.840Z,0.00
2023-02-15T03:35:33.802Z,0.00
2023-02-15T03:36:33.795Z,0.00
2023-02-15T03:37:33.790Z,0.00
2023-02-15T03:38:33.771Z,0.00
2023-02-15T03:39:33.782Z,0.00
2023-02-15T03:40:33.750Z,0.00
2023-02-15T03:41:33.738Z,0.00
2023-02-15T03:42:33.729Z,0.00
2023-02-15T03:43:33.716Z,0.00
2023-02-15T03:44:33.728Z,0.00
2023-02-15T03:45:33.715Z,0.00
2023-02-15T03:46:33.719Z,0.00
2023-02-15T03:47:33.689Z,0.00
2023-02-15T03:48:33.660Z,0.00
2023-02-15T03:49:33.651Z,0.00
2023-02-15T03:50:33.668Z,0.00
2023-02-15T03:51:33.627Z,0.00
2023-02-15T03:52:33.622Z,0.00
2023-02-15T03:53:33.606Z,0.00
2023-02-15T03:54:33.592Z,0.00
2023-02-15T03:55:33.610Z,0.00
2023-02-15T03:56:33.577Z,0.00
2023-02-15T03:57:33.565Z,0.00
2023-02-15T03:58:33.553Z,0.00
2023-02-15T03:59:33.539Z,0.00
2023-02-15T04:00:33.566Z,0.00
2023-02-15T04:01:33.603Z,0.00
2023-02-15T04:02:33.504Z,0.00
2023-02-15T04:03:33.518Z,0.00
2023-02-15T04:04:33.493Z,0.00
2023-02-15T04:05:33.474Z,0.00
2023-02-15T04:06:33.486Z,0.00
2023-02-15T04:07:33.456Z,0.00
2023-02-15T04:08:33.442Z,0.00
2023-02-15T04:09:33.462Z,0.00
2023-02-15T04:10:33.436Z,0.00
2023-02-15T04:11:33.417Z,0.00
2023-02-15T04:12:33.405Z,0.00
2023-02-15T04:13:33.394Z,0.00
2023-02-15T04:14:33.403Z,0.00
2023-02-15T04:15:33.376Z,0.00
2023-02-15T04:16:33.361Z,0.00
2023-02-15T04:17:33.343Z,0.00
2023-02-15T04:18:33.332Z,0.00
2023-02-15T04:19:33.393Z,0.00
2023-02-15T04:20:33.313Z,0.00
2023-02-15T04:21:33.306Z,0.00
2023-02-15T04:22:33.313Z,0.00
2023-02-15T04:23:33.278Z,0.00
2023-02-15T04:24:33.259Z,0.00
2023-02-15T04:25:33.275Z,0.00
2023-02-15T04:26:33.237Z,0.00
2023-02-15T04:27:33.258Z,0.00
2023-02-15T04:28:33.223Z,0.00
2023-02-15T04:29:33.208Z,0.00
2023-02-15T04:30:33.197Z,0.00
2023-02-15T04:31:33.341Z,0.00
2023-02-15T04:32:33.197Z,0.00
2023-02-15T04:33:33.172Z,0.00
2023-02-15T04:34:33.149Z,0.00
2023-02-15T04:35:33.169Z,0.00
2023-02-15T04:36:33.132Z,0.00
2023-02-15T04:37:33.150Z,0.00
2023-02-15T04:38:33.115Z,0.00
2023-02-15T04:39:33.130Z,0.00
2023-02-15T04:40:33.106Z,0.00
2023-02-15T04:41:33.108Z,0.00
2023-02-15T04:42:33.070Z,0.00
2023-02-15T04:43:33.086Z,0.00
2023-02-15T04:44:33.042Z,0.00
2023-02-15T04:45:33.145Z,0.00
2023-02-15T04:46:33.028Z,0.00
2023-02-15T04:47:33.012Z,0.00
2023-02-15T04:48:33.020Z,0.00
2023-02-15T04:49:32.999Z,0.00
2023-02-15T04:50:33.001Z,0.00
2023-02-15T04:51:32.987Z,0.00
2023-02-15T04:52:32.956Z,0.00
2023-02-15T04:53:32.954Z,0.00
2023-02-15T04:54:32.941Z,0.00
2023-02-15T04:55:32.960Z,0.00
2023-02-15T04:56:32.917Z,0.00
2023-02-15T04:57:32.904Z,0.00
2023-02-15T04:58:32.898Z,0.00
2023-02-15T04:59:32.901Z,0.00
2023-02-15T05:00:32.894Z,0.00
2023-02-15T05:01:32.869Z,0.00
2023-02-15T05:02:32.855Z,0.00
2023-02-15T05:03:32.857Z,0.00
2023-02-15T05:04:32.950Z,0.00
2023-02-15T05:05:32.825Z,0.00
2023-02-15T05:06:32.852Z,0.00
2023-02-15T05:07:32.820Z,0.00
2023-02-15T05:08:32.789Z,0.00
2023-02-15T05:09:32.781Z,0.00
2023-02-15T05:10:32.786Z,0.00
2023-02-15T05:11:32.759Z,0.00
2023-02-15T05:12:32.759Z,0.00
2023-02-15T05:13:32.731Z,0.00
2023-02-15T05:14:32.718Z,0.00
2023-02-15T05:15:32.743Z,0.00
2023-02-15T05:16:32.745Z,0.00
2023-02-15T05:17:32.688Z,0.00
2023-02-15T05:18:32.681Z,0.00
2023-02-15T05:19:32.666Z,0.00
2023-02-15T05:20:32.656Z,0.00
2023-02-15T05:21:32.671Z,0.00
2023-02-15T05:22:32.632Z,0.00
2023-02-15T05:23:32.640Z,0.00
2023-02-15T05:24:32.612Z,0.00
2023-02-15T05:25:32.614Z,0.00
2023-02-15T05:26:32.615Z,0.00
2023-02-15T05:27:32.602Z,0.00
2023-02-15T05:28:32.595Z,0.00
2023-02-15T05:29:32.565Z,0.00
2023-02-15T05:30:32.764Z,0.00
2023-02-15T05:31:32.840Z,0.00
2023-02-15T05:32:32.665Z,0.00
2023-02-15T05:33:32.556Z,0.00
2023-02-15T05:34:32.509Z,0.00
2023-02-15T05:35:32.501Z,0.00
2023-02-15T05:36:32.488Z,0.00
2023-02-15T05:37:32.484Z,0.00
2023-02-15T05:38:32.498Z,0.00
2023-02-15T05:39:32.486Z,0.00
2023-02-15T05:40:32.447Z,0.00
2023-02-15T05:41:32.443Z,0.00
2023-02-15T05:42:32.435Z,0.00
2023-02-15T05:43:32.442Z,0.00
2023-02-15T05:44:32.435Z,0.00
2023-02-15T05:45:32.392Z,0.00
2023-02-15T05:46:32.440Z,0.00
2023-02-15T05:47:32.372Z,0.00
2023-02-15T05:48:32.362Z,0.00
2023-02-15T05:49:32.385Z,0.00
2023-02-15T05:50:32.346Z,0.00
2023-02-15T05:51:32.363Z,0.00
2023-02-15T05:52:32.322Z,0.00
2023-02-15T05:53:32.311Z,0.00
2023-02-15T05:54:32.306Z,0.00
2023-02-15T05:55:32.312Z,0.00
2023-02-15T05:56:32.297Z,0.00
2023-02-15T05:57:32.278Z,0.00
2023-02-15T05:58:32.259Z,0.00
2023-02-15T05:59:32.253Z,0.00
2023-02-15T06:00:32.239Z,0.00
2023-02-15T06:01:32.261Z,0.00
2023-02-15T06:02:32.227Z,0.00
2023-02-15T06:03:32.297Z,0.00
2023-02-15T06:04:32.184Z,0.00
2023-02-15T06:05:32.176Z,0.00
2023-02-15T06:06:32.195Z,0.00
2023-02-15T06:07:32.158Z,0.00
2023-02-15T06:08:32.174Z,0.00
2023-02-15T06:09:32.138Z,0.00
2023-02-15T06:10:32.126Z,0.00
2023-02-15T06:11:32.158Z,0.00
2023-02-15T06:12:32.129Z,0.00
2023-02-15T06:13:32.099Z,0.00
2023-02-15T06:14:32.083Z,0.00
2023-02-15T06:15:32.082Z,0.00
2023-02-15T06:16:32.061Z,0.00
2023-02-15T06:17:32.096Z,0.00
2023-02-15T06:18:32.038Z,0.00
2023-02-15T06:19:32.030Z,0.00
2023-02-15T06:20:32.025Z,0.00
2023-02-15T06:21:32.024Z,0.00
2023-02-15T06:22:32.026Z,0.00
2023-02-15T06:23:31.992Z,0.00
2023-02-15T06:24:31.968Z,0.00
2023-02-15T06:25:31.970Z,0.00
2023-02-15T06:26:31.950Z,0.00
2023-02-15T06:27:31.989Z,0.00
2023-02-15T06:28:31.961Z,0.00
2023-02-15T06:29:31.921Z,0.00
2023-02-15T06:30:31.934Z,0.00
2023-02-15T06:31:32.069Z,0.00
2023-02-15T06:32:31.887Z,0.00
2023-02-15T06:33:31.918Z,0.00
2023-02-15T06:34:31.868Z,0.00
2023-02-15T06:35:31.858Z,0.00
2023-02-15T06:36:31.851Z,0.00
2023-02-15T06:37:31.866Z,0.00
2023-02-15T06:38:31.858Z,0.00
2023-02-15T06:39:31.813Z,0.00
2023-02-15T06:40:31.809Z,0.00
2023-02-15T06:41:31.794Z,0.00
2023-02-15T06:42:31.781Z,0.00
2023-02-15T06:43:31.813Z,0.00
2023-02-15T06:44:31.754Z,0.00
2023-02-15T06:45:31.755Z,0.00
2023-02-15T06:46:31.812Z,0.00
2023-02-15T06:47:31.750Z,0.00
2023-02-15T06:48:31.731Z,0.00
2023-02-15T06:49:31.734Z,5.62
2023-02-15T06:50:31.693Z,5.62
2023-02-15T06:51:31.690Z,5.62
2023-02-15T06:52:31.670Z,5.62
2023-02-15T06:53:31.693Z,5.62
2023-02-15T06:54:31.644Z,5.62
2023-02-15T06:55:31.645Z,5.62
2023-02-15T06:56:31.626Z,5.62
2023-02-15T06:57:31.641Z,5.62
2023-02-15T06:58:31.633Z,5.62
2023-02-15T06:59:31.651Z,5.62
2023-02-15T07:00:31.589Z,5.62
2023-02-15T07:01:31.605Z,5.62
2023-02-15T07:02:31.558Z,5.62
2023-02-15T07:03:31.579Z,5.62
2023-02-15T07:04:31.595Z,5.62
2023-02-15T07:05:31.592Z,5.62
2023-02-15T07:06:31.520Z,5.62
2023-02-15T07:07:31.520Z,5.62
2023-02-15T07:08:31.527Z,5.62
2023-02-15T07:09:31.495Z,5.62
2023-02-15T07:10:31.613Z,5.62
2023-02-15T07:11:31.473Z,5.62
2023-02-15T07:12:31.446Z,5.62
2023-02-15T07:13:31.469Z,5.62
2023-02-15T07:14:31.516Z,5.62
2023-02-15T07:15:31.439Z,5.62
2023-02-15T07:16:31.486Z,5.62
2023-02-15T07:17:38.067Z,11.25
2023-02-15T07:18:32.380Z,11.25
2023-02-15T07:19:31.416Z,11.25
2023-02-15T07:20:31.396Z,11.25
2023-02-15T07:21:31.358Z,11.25
2023-02-15T07:22:31.341Z,11.25
2023-02-15T07:23:31.332Z,11.25
2023-02-15T07:24:31.346Z,11.25
2023-02-15T07:25:31.317Z,11.25
2023-02-15T07:26:31.295Z,11.25
2023-02-15T07:27:31.289Z,11.25
2023-02-15T07:28:31.274Z,11.25
2023-02-15T07:29:31.317Z,11.25
2023-02-15T07:30:31.435Z,11.25
2023-02-15T07:31:31.265Z,11.25
2023-02-15T07:32:31.341Z,11.25
2023-02-15T07:33:31.220Z,11.25
2023-02-15T07:34:31.235Z,11.25
2023-02-15T07:35:31.213Z,11.25
2023-02-15T07:36:31.217Z,16.88
2023-02-15T07:37:31.181Z,16.88
2023-02-15T07:38:31.165Z,16.88
2023-02-15T07:39:31.165Z,16.88
2023-02-15T07:40:31.316Z,16.88
2023-02-15T07:41:31.159Z,11.25
2023-02-15T07:42:31.116Z,16.88
2023-02-15T07:43:31.132Z,16.88
2023-02-15T07:44:31.100Z,16.88
2023-02-15T07:45:31.092Z,16.88
2023-02-15T07:46:31.119Z,16.88
2023-02-15T07:47:31.091Z,16.88
2023-02-15T07:48:31.057Z,16.88
2023-02-15T07:49:31.046Z,16.88
2023-02-15T07:50:31.063Z,16.88
2023-02-15T07:51:31.053Z,16.88
2023-02-15T07:52:31.017Z,16.88
2023-02-15T07:53:31.008Z,16.88
2023-02-15T07:54:31.000Z,16.88
2023-02-15T07:55:31.005Z,16.88
2023-02-15T07:56:33.332Z,16.88
2023-02-15T07:57:30.965Z,16.88
2023-02-15T07:58:30.947Z,16.88
2023-02-15T07:59:30.955Z,16.88
2023-02-15T08:00:31.120Z,16.88
2023-02-15T08:01:30.924Z,16.88
2023-02-15T08:02:30.974Z,22.50
2023-02-15T08:03:30.976Z,16.88
2023-02-15T08:04:30.887Z,16.88
2023-02-15T08:05:30.873Z,22.50
2023-02-15T08:06:30.865Z,16.88
2023-02-15T08:07:30.890Z,16.88
2023-02-15T08:08:31.145Z,22.50
2023-02-15T08:09:30.845Z,16.88
2023-02-15T08:10:30.835Z,16.88
2023-02-15T08:11:30.835Z,16.88
2023-02-15T08:12:30.815Z,22.50
2023-02-15T08:13:30.790Z,16.88
2023-02-15T08:14:30.780Z,22.50
2023-02-15T08:15:30.770Z,22.50
2023-02-15T08:16:30.886Z,22.50
2023-02-15T08:17:30.749Z,16.88
2023-02-15T08:18:30.768Z,22.50
2023-02-15T08:19:30.765Z,16.88
2023-02-15T08:20:30.716Z,22.50
2023-02-15T08:21:30.734Z,22.50
2023-02-15T08:22:30.714Z,22.50
2023-02-15T08:23:30.704Z,22.50
2023-02-15T08:24:30.678Z,22.50
2023-02-15T08:25:30.675Z,22.50
2023-02-15T08:26:30.652Z,22.50
2023-02-15T08:27:30.670Z,22.50
2023-02-15T08:28:30.637Z,22.50
2023-02-15T08:29:30.635Z,22.50
2023-02-15T08:30:30.661Z,16.88
2023-02-15T08:31:30.768Z,16.88
2023-02-15T08:32:30.615Z,22.50
2023-02-15T08:33:30.570Z,22.50
2023-02-15T08:34:30.572Z,22.50
2023-02-15T08:35:30.694Z,22.50
2023-02-15T08:36:30.560Z,22.50
2023-02-15T08:37:30.564Z,22.50
2023-02-15T08:38:33.187Z,22.50
2023-02-15T08:39:30.536Z,22.50
2023-02-15T08:40:30.504Z,28.12
2023-02-15T08:41:30.488Z,28.12
2023-02-15T08:42:30.485Z,28.12
2023-02-15T08:43:30.494Z,28.12
2023-02-15T08:44:30.467Z,28.12
2023-02-15T08:45:30.525Z,28.12
2023-02-15T08:46:30.434Z,28.12
2023-02-15T08:47:30.424Z,28.12
2023-02-15T08:48:30.444Z,28.12
2023-02-15T08:49:30.407Z,28.12
2023-02-15T08:50:30.401Z,28.12
2023-02-15T08:51:30.426Z,28.12
2023-02-15T08:52:30.379Z,28.12
2023-02-15T08:53:30.362Z,28.12
2023-02-15T08:54:30.355Z,28.12
2023-02-15T08:55:30.347Z,28.12
2023-02-15T08:56:30.362Z,28.12
2023-02-15T08:57:30.318Z,33.75
2023-02-15T08:58:30.311Z,33.75
2023-02-15T08:59:30.322Z,33.75
2023-02-15T09:00:30.288Z,33.75
2023-02-15T09:01:30.370Z,33.75
2023-02-15T09:02:30.321Z,33.75
2023-02-15T09:03:30.254Z,33.75
2023-02-15T09:04:30.269Z,39.38
2023-02-15T09:05:30.239Z,39.38
2023-02-15T09:06:30.235Z,33.75
2023-02-15T09:07:30.273Z,39.38
2023-02-15T09:08:30.208Z,39.38
2023-02-15T09:09:30.214Z,39.38
2023-02-15T09:10:30.185Z,39.38
2023-02-15T09:11:30.171Z,45.00
2023-02-15T09:12:30.159Z,39.38
2023-02-15T09:13:30.139Z,39.38
2023-02-15T09:14:30.163Z,45.00
2023-02-15T09:15:30.121Z,50.62
2023-02-15T09:16:30.205Z,50.62
2023-02-15T09:17:30.110Z,61.88
2023-02-15T09:18:30.090Z,56.25
2023-02-15T09:19:30.104Z,56.25
2023-02-15T09:20:30.075Z,61.88
2023-02-15T09:21:30.077Z,56.25
2023-02-15T09:22:30.050Z,56.25
2023-02-15T09:23:30.057Z,50.62
2023-02-15T09:24:30.025Z,50.62
2023-02-15T09:25:30.009Z,56.25
2023-02-15T09:26:30.034Z,61.88
2023-02-15T09:27:30.001Z,61.88
2023-02-15T09:28:29.978Z,67.50
2023-02-15T09:29:29.973Z,78.75
2023-02-15T09:30:30.062Z,67.50
2023-02-15T09:31:30.060Z,61.88
2023-02-15T09:32:29.940Z,67.50
2023-02-15T09:33:29.924Z,61.88
2023-02-15T09:34:29.920Z,67.50
2023-02-15T09:35:29.926Z,73.12
2023-02-15T09:36:29.926Z,67.50
2023-02-15T09:37:29.886Z,73.12
2023-02-15T09:38:29.873Z,61.88
2023-02-15T09:39:29.910Z,56.25
2023-02-15T09:40:29.863Z,50.62
2023-02-15T09:41:29.876Z,61.88
2023-02-15T09:42:29.856Z,61.88
2023-02-15T09:43:29.821Z,61.88
2023-02-15T09:44:29.816Z,56.25
2023-02-15T09:45:29.790Z,67.50
2023-02-15T09:46:29.826Z,67.50
2023-02-15T09:47:29.768Z,78.75
2023-02-15T09:48:29.767Z,67.50
2023-02-15T09:49:29.749Z,67.50
2023-02-15T09:50:29.740Z,61.88
2023-02-15T09:51:29.753Z,61.88
2023-02-15T09:52:29.721Z,61.88
2023-02-15T09:53:29.705Z,61.88
2023-02-15T09:54:29.698Z,67.50
2023-02-15T09:55:29.712Z,61.88
2023-02-15T09:56:29.709Z,67.50
2023-02-15T09:57:29.661Z,78.75
2023-02-15T09:58:29.659Z,78.75
2023-02-15T09:59:29.658Z,78.75
2023-02-15T10:00:29.640Z,90.00
2023-02-15T10:01:29.701Z,95.62
2023-02-15T10:02:29.630Z,78.75
2023-02-15T10:03:29.601Z,90.00
2023-02-15T10:04:29.641Z,95.62
2023-02-15T10:05:29.589Z,90.00
2023-02-15T10:06:29.602Z,84.38
2023-02-15T10:07:29.551Z,78.75
2023-02-15T10:08:29.549Z,90.00
2023-02-15T10:09:29.534Z,90.00
2023-02-15T10:10:29.530Z,101.25
2023-02-15T10:11:29.542Z,106.88
2023-02-15T10:12:29.527Z,112.50
2023-02-15T10:13:29.502Z,140.62
2023-02-15T10:14:29.483Z,112.50
2023-02-15T10:15:29.477Z,106.88
2023-02-15T10:16:29.549Z,90.00
2023-02-15T10:17:29.470Z,112.50
2023-02-15T10:18:29.441Z,135.00
2023-02-15T10:19:29.423Z,84.38
2023-02-15T10:20:29.430Z,67.50
2023-02-15T10:21:29.437Z,90.00
2023-02-15T10:22:29.409Z,118.12
2023-02-15T10:23:29.403Z,95.62
2023-02-15T10:24:29.380Z,78.75
2023-02-15T10:25:29.392Z,84.38
2023-02-15T10:26:29.359Z,78.75
2023-02-15T10:27:29.391Z,73.12
2023-02-15T10:28:29.331Z,73.12
2023-02-15T10:29:29.317Z,73.12
2023-02-15T10:30:32.138Z,67.50
2023-02-15T10:31:29.406Z,67.50
2023-02-15T10:32:29.354Z,67.50
2023-02-15T10:33:29.281Z,67.50
2023-02-15T10:34:29.284Z,61.88
2023-02-15T10:35:29.370Z,67.50
2023-02-15T10:36:29.249Z,67.50
2023-02-15T10:37:29.229Z,61.88
2023-02-15T10:38:29.218Z,56.25
2023-02-15T10:39:29.230Z,56.25
2023-02-15T10:40:29.199Z,56.25
2023-02-15T10:41:29.195Z,56.25
2023-02-15T10:42:29.195Z,56.25
2023-02-15T10:43:29.184Z,56.25
2023-02-15T10:44:29.196Z,56.25
2023-02-15T10:45:29.151Z,56.25
2023-02-15T10:46:29.189Z,56.25
2023-02-15T10:47:29.147Z,56.25
2023-02-15T10:48:29.118Z,56.25
2023-02-15T10:49:29.123Z,56.25
2023-02-15T10:50:29.116Z,50.62
2023-02-15T10:51:29.079Z,56.25
2023-02-15T10:52:29.099Z,56.25
2023-02-15T10:53:29.057Z,50.62
2023-02-15T10:54:29.056Z,50.62
2023-02-15T10:55:29.032Z,50.62
2023-02-15T10:56:29.026Z,50.62
2023-02-15T10:57:29.032Z,50.62
2023-02-15T10:58:29.033Z,50.62
2023-02-15T10:59:29.021Z,50.62
2023-02-15T11:00:28.983Z,50.62
2023-02-15T11:01:28.991Z,50.62
2023-02-15T11:02:28.994Z,50.62
2023-02-15T11:03:28.975Z,50.62
2023-02-15T11:04:28.938Z,50.62
2023-02-15T11:05:28.927Z,50.62
2023-02-15T11:06:28.928Z,50.62
2023-02-15T11:07:28.908Z,50.62
2023-02-15T11:08:28.929Z,50.62
2023-02-15T11:09:28.894Z,45.00
2023-02-15T11:10:28.875Z,45.00
2023-02-15T11:11:28.870Z,45.00
2023-02-15T11:12:28.880Z,50.62
2023-02-15T11:13:28.836Z,50.62
2023-02-15T11:14:28.846Z,50.62
2023-02-15T11:15:28.922Z,50.62
2023-02-15T11:16:28.836Z,50.62
2023-02-15T11:17:28.795Z,50.62
2023-02-15T11:18:28.841Z,50.62
2023-02-15T11:19:28.779Z,45.00
2023-02-15T11:20:28.772Z,45.00
2023-02-15T11:21:28.786Z,45.00
2023-02-15T11:22:28.744Z,50.62
2023-02-15T11:23:28.738Z,50.62
2023-02-15T11:24:28.727Z,50.62
2023-02-15T11:25:28.711Z,56.25
2023-02-15T11:26:28.729Z,56.25
2023-02-15T11:27:28.726Z,50.62
2023-02-15T11:28:28.687Z,50.62
2023-02-15T11:29:28.698Z,50.62
2023-02-15T11:30:28.758Z,50.62
2023-02-15T11:31:28.797Z,50.62
2023-02-15T11:32:28.654Z,50.62
2023-02-15T11:33:28.619Z,50.62
2023-02-15T11:34:28.640Z,50.62
2023-02-15T11:35:28.599Z,50.62
2023-02-15T11:36:28.619Z,50.62
2023-02-15T11:37:28.575Z,50.62
2023-02-15T11:38:28.563Z,50.62
2023-02-15T11:39:28.585Z,50.62
2023-02-15T11:40:28.552Z,50.62
2023-02-15T11:41:28.559Z,50.62
2023-02-15T11:42:28.525Z,56.25
2023-02-15T11:43:28.538Z,56.25
2023-02-15T11:44:28.508Z,56.25
2023-02-15T11:45:28.496Z,56.25
2023-02-15T11:46:28.548Z,56.25
2023-02-15T11:47:28.492Z,56.25
2023-02-15T11:48:28.463Z,56.25
2023-02-15T11:49:28.444Z,56.25
2023-02-15T11:50:28.459Z,56.25
2023-02-15T11:51:28.440Z,50.62
2023-02-15T11:52:28.437Z,50.62
2023-02-15T11:53:28.401Z,50.62
2023-02-15T11:54:28.411Z,50.62
2023-02-15T11:55:28.383Z,50.62
2023-02-15T11:56:28.384Z,50.62
2023-02-15T11:57:28.448Z,50.62
2023-02-15T11:58:28.365Z,50.62
2023-02-15T11:59:28.432Z,50.62
2023-02-15T12:00:28.340Z,50.62
2023-02-15T12:01:28.323Z,50.62
2023-02-15T12:02:28.366Z,50.62
2023-02-15T12:03:28.329Z,45.00
2023-02-15T12:04:28.290Z,45.00
2023-02-15T12:05:28.268Z,45.00
2023-02-15T12:06:28.301Z,45.00
2023-02-15T12:07:28.278Z,45.00
2023-02-15T12:08:28.258Z,45.00
2023-02-15T12:09:28.227Z,45.00
2023-02-15T12:10:28.237Z,45.00
2023-02-15T12:11:28.202Z,45.00
2023-02-15T12:12:28.202Z,45.00
2023-02-15T12:13:28.198Z,45.00
2023-02-15T12:14:28.171Z,45.00
2023-02-15T12:15:28.157Z,45.00
2023-02-15T12:16:28.186Z,45.00
2023-02-15T12:17:28.134Z,45.00
2023-02-15T12:18:28.170Z,45.00
2023-02-15T12:19:28.141Z,45.00
2023-02-15T12:20:28.104Z,45.00
2023-02-15T12:21:28.109Z,45.00
2023-02-15T12:22:28.084Z,45.00
2023-02-15T12:23:28.080Z,45.00
2023-02-15T12:24:28.133Z,45.00
2023-02-15T12:25:28.064Z,45.00
2023-02-15T12:26:28.053Z,45.00
2023-02-15T12:27:28.030Z,45.00
2023-02-15T12:28:28.024Z,45.00
2023-02-15T12:29:28.034Z,45.00
2023-02-15T12:30:28.028Z,45.00
2023-02-15T12:31:28.150Z,45.00
2023-02-15T12:32:28.115Z,45.00
2023-02-15T12:33:27.962Z,45.00
2023-02-15T12:34:27.986Z,50.62
2023-02-15T12:35:27.965Z,50.62
2023-02-15T12:36:27.930Z,50.62
2023-02-15T12:37:27.959Z,50.62
2023-02-15T12:38:27.907Z,50.62
2023-02-15T12:39:27.929Z,50.62
2023-02-15T12:40:29.785Z,56.25
2023-02-15T12:41:27.881Z,56.25
2023-02-15T12:42:27.868Z,56.25
2023-02-15T12:43:27.860Z,50.62
2023-02-15T12:44:27.872Z,50.62
2023-02-15T12:45:27.837Z,50.62
2023-02-15T12:46:27.885Z,50.62
2023-02-15T12:47:29.249Z,50.62
2023-02-15T12:48:27.798Z,56.25
2023-02-15T12:49:27.819Z,56.25
2023-02-15T12:50:34.565Z,56.25
2023-02-15T12:51:28.796Z,56.25
2023-02-15T12:52:27.761Z,50.62
2023-02-15T12:53:27.751Z,56.25
2023-02-15T12:54:27.753Z,56.25
2023-02-15T12:55:27.725Z,61.88
2023-02-15T12:56:27.740Z,56.25
2023-02-15T12:57:27.703Z,56.25
2023-02-15T12:58:27.692Z,56.25
2023-02-15T12:59:27.678Z,56.25
2023-02-15T13:00:27.871Z,50.62
2023-02-15T13:01:27.807Z,50.62
2023-02-15T13:02:27.698Z,56.25
2023-02-15T13:03:27.671Z,56.25
2023-02-15T13:04:27.640Z,50.62
2023-02-15T13:05:27.617Z,50.62
2023-02-15T13:06:27.664Z,50.62